sensor_id;sensor_type;location;lat;lon;timestamp;pressure;altitude;pressure_sealevel;temperature;humidity
76726;BME280;65651;53.154;17.916;2023-02-05T00:02:08;103177.61;;;-4.89;83.70
76726;BME280;65651;53.154;17.916;2023-02-05T00:04:36;103183.53;;;-4.92;83.64
76726;BME280;65651;53.154;17.916;2023-02-05T00:07:04;103186.99;;;-4.97;83.65
76726;BME280;65651;53.154;17.916;2023-02-05T00:09:31;103188.54;;;-5.01;83.59
76726;BME280;65651;53.154;17.916;2023-02-05T00:11:59;103189.85;;;-5.07;83.57
76726;BME280;65651;53.154;17.916;2023-02-05T00:14:26;103189.44;;;-5.12;83.56
76726;BME280;65651;53.154;17.916;2023-02-05T00:16:54;103190.11;;;-5.16;83.61
76726;BME280;65651;53.154;17.916;2023-02-05T00:19:22;103188.32;;;-5.20;83.58
76726;BME280;65651;53.154;17.916;2023-02-05T00:21:49;103191.98;;;-5.22;83.67
76726;BME280;65651;53.154;17.916;2023-02-05T00:24:16;103195.96;;;-5.23;83.70
76726;BME280;65651;53.154;17.916;2023-02-05T00:26:44;103200.69;;;-5.25;83.72
76726;BME280;65651;53.154;17.916;2023-02-05T00:29:11;103210.81;;;-5.27;83.68
76726;BME280;65651;53.154;17.916;2023-02-05T00:31:40;103217.24;;;-5.30;83.86
76726;BME280;65651;53.154;17.916;2023-02-05T00:34:08;103215.13;;;-5.33;83.66
76726;BME280;65651;53.154;17.916;2023-02-05T00:36:35;103220.66;;;-5.37;83.72
76726;BME280;65651;53.154;17.916;2023-02-05T00:39:07;103228.30;;;-5.42;83.80
76726;BME280;65651;53.154;17.916;2023-02-05T00:41:37;103228.60;;;-5.46;83.67
76726;BME280;65651;53.154;17.916;2023-02-05T00:44:06;103231.69;;;-5.50;83.72
76726;BME280;65651;53.154;17.916;2023-02-05T00:46:33;103229.17;;;-5.54;83.72
76726;BME280;65651;53.154;17.916;2023-02-05T00:49:00;103229.52;;;-5.56;83.66
76726;BME280;65651;53.154;17.916;2023-02-05T00:51:28;103221.25;;;-5.59;83.61
76726;BME280;65651;53.154;17.916;2023-02-05T00:53:56;103223.85;;;-5.60;83.65
76726;BME280;65651;53.154;17.916;2023-02-05T00:56:23;103223.31;;;-5.61;83.66
76726;BME280;65651;53.154;17.916;2023-02-05T00:58:52;103224.17;;;-5.62;83.66
76726;BME280;65651;53.154;17.916;2023-02-05T01:01:23;103224.14;;;-5.64;83.83
76726;BME280;65651;53.154;17.916;2023-02-05T01:03:50;103230.40;;;-5.67;83.78
76726;BME280;65651;53.154;17.916;2023-02-05T01:06:18;103228.42;;;-5.71;83.77
76726;BME280;65651;53.154;17.916;2023-02-05T01:08:49;103226.45;;;-5.75;83.98
76726;BME280;65651;53.154;17.916;2023-02-05T01:11:17;103224.98;;;-5.78;83.73
76726;BME280;65651;53.154;17.916;2023-02-05T01:13:46;103221.10;;;-5.82;83.82
76726;BME280;65651;53.154;17.916;2023-02-05T01:16:13;103216.48;;;-5.86;83.86
76726;BME280;65651;53.154;17.916;2023-02-05T01:18:41;103217.66;;;-5.89;83.92
76726;BME280;65651;53.154;17.916;2023-02-05T01:21:08;103215.20;;;-5.93;83.84
76726;BME280;65651;53.154;17.916;2023-02-05T01:23:38;103210.74;;;-5.99;84.03
76726;BME280;65651;53.154;17.916;2023-02-05T01:26:06;103209.65;;;-6.01;83.88
76726;BME280;65651;53.154;17.916;2023-02-05T01:28:34;103209.61;;;-6.03;83.75
76726;BME280;65651;53.154;17.916;2023-02-05T01:31:01;103206.80;;;-6.05;83.97
76726;BME280;65651;53.154;17.916;2023-02-05T01:33:29;103204.86;;;-6.06;84.00
76726;BME280;65651;53.154;17.916;2023-02-05T01:35:56;103206.94;;;-6.07;83.85
76726;BME280;65651;53.154;17.916;2023-02-05T01:38:24;103210.04;;;-6.09;83.64
76726;BME280;65651;53.154;17.916;2023-02-05T01:40:51;103208.80;;;-6.12;83.92
76726;BME280;65651;53.154;17.916;2023-02-05T01:43:19;103208.43;;;-6.12;84.01
76726;BME280;65651;53.154;17.916;2023-02-05T01:46:04;103201.25;;;-6.13;83.75
76726;BME280;65651;53.154;17.916;2023-02-05T01:48:41;103199.48;;;-6.14;83.82
76726;BME280;65651;53.154;17.916;2023-02-05T01:51:12;103191.24;;;-6.15;83.88
76726;BME280;65651;53.154;17.916;2023-02-05T01:53:43;103187.20;;;-6.18;83.85
76726;BME280;65651;53.154;17.916;2023-02-05T01:56:16;103181.70;;;-6.23;83.69
76726;BME280;65651;53.154;17.916;2023-02-05T01:58:55;103178.47;;;-6.28;83.67
76726;BME280;65651;53.154;17.916;2023-02-05T02:01:24;103183.98;;;-6.34;83.90
76726;BME280;65651;53.154;17.916;2023-02-05T02:03:53;103182.48;;;-6.39;83.68
76726;BME280;65651;53.154;17.916;2023-02-05T02:06:21;103183.81;;;-6.44;83.55
76726;BME280;65651;53.154;17.916;2023-02-05T02:08:49;103178.86;;;-6.46;83.58
76726;BME280;65651;53.154;17.916;2023-02-05T02:11:18;103182.67;;;-6.49;83.51
76726;BME280;65651;53.154;17.916;2023-02-05T02:13:48;103186.47;;;-6.51;83.93
76726;BME280;65651;53.154;17.916;2023-02-05T02:16:17;103191.34;;;-6.53;83.70
76726;BME280;65651;53.154;17.916;2023-02-05T02:18:45;103186.96;;;-6.54;83.50
76726;BME280;65651;53.154;17.916;2023-02-05T02:27:10;103166.69;;;-6.65;83.89
76726;BME280;65651;53.154;17.916;2023-02-05T02:35:52;103174.98;;;-6.80;83.62
76726;BME280;65651;53.154;17.916;2023-02-05T02:41:00;103174.66;;;-6.78;83.76
76726;BME280;65651;53.154;17.916;2023-02-05T02:43:57;103171.41;;;-6.74;84.06
76726;BME280;65651;53.154;17.916;2023-02-05T02:46:30;103174.45;;;-6.70;83.64
76726;BME280;65651;53.154;17.916;2023-02-05T02:49:04;103171.59;;;-6.63;83.96
76726;BME280;65651;53.154;17.916;2023-02-05T02:51:35;103166.33;;;-6.55;83.80
76726;BME280;65651;53.154;17.916;2023-02-05T02:54:08;103168.38;;;-6.47;83.62
76726;BME280;65651;53.154;17.916;2023-02-05T02:56:40;103160.30;;;-6.39;83.96
76726;BME280;65651;53.154;17.916;2023-02-05T02:59:20;103156.90;;;-6.33;84.14
76726;BME280;65651;53.154;17.916;2023-02-05T03:01:53;103155.59;;;-6.27;84.04
76726;BME280;65651;53.154;17.916;2023-02-05T03:04:29;103152.17;;;-6.22;84.15
76726;BME280;65651;53.154;17.916;2023-02-05T03:07:40;103143.44;;;-6.21;84.19
76726;BME280;65651;53.154;17.916;2023-02-05T03:12:44;103152.85;;;-6.24;83.98
76726;BME280;65651;53.154;17.916;2023-02-05T03:15:12;103153.33;;;-6.27;84.16
76726;BME280;65651;53.154;17.916;2023-02-05T03:17:41;103153.09;;;-6.31;84.03
76726;BME280;65651;53.154;17.916;2023-02-05T03:20:20;103154.59;;;-6.36;84.09
76726;BME280;65651;53.154;17.916;2023-02-05T03:22:50;103151.33;;;-6.42;83.90
76726;BME280;65651;53.154;17.916;2023-02-05T03:25:20;103152.61;;;-6.49;83.99
76726;BME280;65651;53.154;17.916;2023-02-05T03:27:51;103151.83;;;-6.55;83.96
76726;BME280;65651;53.154;17.916;2023-02-05T03:30:20;103146.66;;;-6.61;83.82
76726;BME280;65651;53.154;17.916;2023-02-05T03:38:32;103150.43;;;-6.76;83.99
76726;BME280;65651;53.154;17.916;2023-02-05T03:41:14;103152.64;;;-6.80;84.08
76726;BME280;65651;53.154;17.916;2023-02-05T03:44:07;103153.09;;;-6.83;84.35
76726;BME280;65651;53.154;17.916;2023-02-05T03:49:31;103151.06;;;-6.88;83.93
76726;BME280;65651;53.154;17.916;2023-02-05T03:52:28;103150.64;;;-6.93;84.17
76726;BME280;65651;53.154;17.916;2023-02-05T03:57:49;103146.27;;;-7.04;84.00
76726;BME280;65651;53.154;17.916;2023-02-05T04:00:19;103151.05;;;-7.10;83.83
76726;BME280;65651;53.154;17.916;2023-02-05T04:02:47;103151.48;;;-7.15;83.98
76726;BME280;65651;53.154;17.916;2023-02-05T04:05:21;103153.96;;;-7.21;84.02
76726;BME280;65651;53.154;17.916;2023-02-05T04:07:50;103154.70;;;-7.29;84.00
76726;BME280;65651;53.154;17.916;2023-02-05T04:10:18;103150.90;;;-7.36;83.74
76726;BME280;65651;53.154;17.916;2023-02-05T04:12:47;103156.23;;;-7.40;83.87
76726;BME280;65651;53.154;17.916;2023-02-05T04:15:15;103163.64;;;-7.44;83.63
76726;BME280;65651;53.154;17.916;2023-02-05T04:17:45;103168.66;;;-7.46;83.59
76726;BME280;65651;53.154;17.916;2023-02-05T04:20:15;103172.48;;;-7.47;83.78
76726;BME280;65651;53.154;17.916;2023-02-05T04:22:43;103171.07;;;-7.47;83.66
76726;BME280;65651;53.154;17.916;2023-02-05T04:25:13;103170.23;;;-7.46;83.83
76726;BME280;65651;53.154;17.916;2023-02-05T04:27:41;103172.50;;;-7.45;83.70
76726;BME280;65651;53.154;17.916;2023-02-05T04:30:10;103168.19;;;-7.43;83.81
76726;BME280;65651;53.154;17.916;2023-02-05T04:32:40;103161.29;;;-7.40;83.77
76726;BME280;65651;53.154;17.916;2023-02-05T04:35:08;103164.65;;;-7.37;84.08
76726;BME280;65651;53.154;17.916;2023-02-05T04:37:35;103165.40;;;-7.35;83.91
76726;BME280;65651;53.154;17.916;2023-02-05T04:40:04;103172.75;;;-7.33;83.87
76726;BME280;65651;53.154;17.916;2023-02-05T04:42:31;103181.30;;;-7.33;83.84
76726;BME280;65651;53.154;17.916;2023-02-05T04:44:59;103188.05;;;-7.35;83.71
76726;BME280;65651;53.154;17.916;2023-02-05T04:47:26;103194.46;;;-7.38;83.52
76726;BME280;65651;53.154;17.916;2023-02-05T04:49:53;103196.01;;;-7.39;83.71
76726;BME280;65651;53.154;17.916;2023-02-05T04:52:21;103203.16;;;-7.39;83.67
76726;BME280;65651;53.154;17.916;2023-02-05T04:54:48;103207.52;;;-7.39;83.69
76726;BME280;65651;53.154;17.916;2023-02-05T04:57:16;103207.34;;;-7.39;83.49
76726;BME280;65651;53.154;17.916;2023-02-05T04:59:43;103204.55;;;-7.39;83.57
76726;BME280;65651;53.154;17.916;2023-02-05T05:02:11;103209.25;;;-7.40;83.75
76726;BME280;65651;53.154;17.916;2023-02-05T05:04:38;103212.73;;;-7.40;83.50
76726;BME280;65651;53.154;17.916;2023-02-05T05:07:06;103212.46;;;-7.36;83.75
76726;BME280;65651;53.154;17.916;2023-02-05T05:09:33;103214.48;;;-7.32;83.92
76726;BME280;65651;53.154;17.916;2023-02-05T05:12:02;103216.30;;;-7.27;83.81
76726;BME280;65651;53.154;17.916;2023-02-05T05:14:29;103213.88;;;-7.27;84.00
76726;BME280;65651;53.154;17.916;2023-02-05T05:16:56;103214.45;;;-7.24;83.89
76726;BME280;65651;53.154;17.916;2023-02-05T05:19:24;103211.36;;;-7.22;83.96
76726;BME280;65651;53.154;17.916;2023-02-05T05:21:51;103211.55;;;-7.20;84.09
76726;BME280;65651;53.154;17.916;2023-02-05T05:24:18;103213.48;;;-7.20;83.97
76726;BME280;65651;53.154;17.916;2023-02-05T05:26:46;103215.20;;;-7.22;83.78
76726;BME280;65651;53.154;17.916;2023-02-05T05:29:14;103210.08;;;-7.24;83.88
76726;BME280;65651;53.154;17.916;2023-02-05T05:31:41;103211.52;;;-7.31;83.62
76726;BME280;65651;53.154;17.916;2023-02-05T05:34:09;103209.85;;;-7.36;83.71
76726;BME280;65651;53.154;17.916;2023-02-05T05:36:36;103213.61;;;-7.39;83.73
76726;BME280;65651;53.154;17.916;2023-02-05T05:39:06;103218.13;;;-7.41;83.64
76726;BME280;65651;53.154;17.916;2023-02-05T05:41:52;103224.80;;;-7.39;83.57
76726;BME280;65651;53.154;17.916;2023-02-05T05:44:38;103232.39;;;-7.35;83.50
76726;BME280;65651;53.154;17.916;2023-02-05T05:47:05;103237.14;;;-7.33;83.53
76726;BME280;65651;53.154;17.916;2023-02-05T05:49:33;103241.52;;;-7.23;83.53
76726;BME280;65651;53.154;17.916;2023-02-05T05:52:00;103241.25;;;-7.11;83.76
76726;BME280;65651;53.154;17.916;2023-02-05T05:54:27;103239.29;;;-6.95;83.75
76726;BME280;65651;53.154;17.916;2023-02-05T05:56:55;103240.95;;;-6.82;83.73
76726;BME280;65651;53.154;17.916;2023-02-05T05:59:22;103246.88;;;-6.72;83.80
76726;BME280;65651;53.154;17.916;2023-02-05T06:01:49;103251.21;;;-6.65;83.84
76726;BME280;65651;53.154;17.916;2023-02-05T06:04:17;103250.58;;;-6.62;84.22
76726;BME280;65651;53.154;17.916;2023-02-05T06:06:44;103250.81;;;-6.58;83.72
76726;BME280;65651;53.154;17.916;2023-02-05T06:09:12;103258.02;;;-6.56;83.96
76726;BME280;65651;53.154;17.916;2023-02-05T06:11:39;103261.02;;;-6.54;84.11
76726;BME280;65651;53.154;17.916;2023-02-05T06:14:07;103270.61;;;-6.56;83.98
76726;BME280;65651;53.154;17.916;2023-02-05T06:16:34;103270.54;;;-6.58;84.30
76726;BME280;65651;53.154;17.916;2023-02-05T06:19:01;103275.92;;;-6.61;83.94
76726;BME280;65651;53.154;17.916;2023-02-05T06:21:29;103286.23;;;-6.61;84.08
76726;BME280;65651;53.154;17.916;2023-02-05T06:23:56;103291.52;;;-6.58;83.81
76726;BME280;65651;53.154;17.916;2023-02-05T06:26:24;103291.78;;;-6.53;83.80
76726;BME280;65651;53.154;17.916;2023-02-05T06:28:51;103285.41;;;-6.48;83.74
76726;BME280;65651;53.154;17.916;2023-02-05T06:31:19;103284.48;;;-6.42;83.77
76726;BME280;65651;53.154;17.916;2023-02-05T06:33:46;103280.48;;;-6.40;83.63
76726;BME280;65651;53.154;17.916;2023-02-05T06:36:13;103282.92;;;-6.40;83.58
76726;BME280;65651;53.154;17.916;2023-02-05T06:38:41;103292.90;;;-6.39;83.50
76726;BME280;65651;53.154;17.916;2023-02-05T06:41:08;103297.64;;;-6.38;83.40
76726;BME280;65651;53.154;17.916;2023-02-05T06:43:36;103292.94;;;-6.38;83.54
76726;BME280;65651;53.154;17.916;2023-02-05T06:46:06;103291.73;;;-6.37;83.32
76726;BME280;65651;53.154;17.916;2023-02-05T06:48:33;103290.86;;;-6.37;83.40
76726;BME280;65651;53.154;17.916;2023-02-05T06:51:00;103288.23;;;-6.38;83.47
76726;BME280;65651;53.154;17.916;2023-02-05T06:53:28;103289.74;;;-6.40;83.42
76726;BME280;65651;53.154;17.916;2023-02-05T06:55:58;103295.30;;;-6.42;83.55
76726;BME280;65651;53.154;17.916;2023-02-05T06:58:26;103300.73;;;-6.42;83.10
76726;BME280;65651;53.154;17.916;2023-02-05T07:00:53;103302.05;;;-6.45;83.23
76726;BME280;65651;53.154;17.916;2023-02-05T07:03:20;103300.45;;;-6.47;83.15
76726;BME280;65651;53.154;17.916;2023-02-05T07:05:48;103300.80;;;-6.47;83.09
76726;BME280;65651;53.154;17.916;2023-02-05T07:08:16;103306.63;;;-6.44;83.23
76726;BME280;65651;53.154;17.916;2023-02-05T07:10:43;103310.35;;;-6.41;83.15
76726;BME280;65651;53.154;17.916;2023-02-05T07:13:11;103312.66;;;-6.39;83.11
76726;BME280;65651;53.154;17.916;2023-02-05T07:15:38;103310.64;;;-6.34;83.08
76726;BME280;65651;53.154;17.916;2023-02-05T07:18:05;103300.15;;;-6.35;83.07
76726;BME280;65651;53.154;17.916;2023-02-05T07:20:33;103304.92;;;-6.32;83.09
76726;BME280;65651;53.154;17.916;2023-02-05T07:23:00;103313.38;;;-6.28;83.04
76726;BME280;65651;53.154;17.916;2023-02-05T07:25:28;103320.10;;;-6.24;83.18
76726;BME280;65651;53.154;17.916;2023-02-05T07:28:04;103319.63;;;-6.21;82.96
76726;BME280;65651;53.154;17.916;2023-02-05T07:30:32;103322.99;;;-6.19;83.24
76726;BME280;65651;53.154;17.916;2023-02-05T07:32:59;103330.73;;;-6.16;82.90
76726;BME280;65651;53.154;17.916;2023-02-05T07:35:30;103338.11;;;-6.14;82.98
76726;BME280;65651;53.154;17.916;2023-02-05T07:37:58;103344.88;;;-6.07;83.17
76726;BME280;65651;53.154;17.916;2023-02-05T07:40:25;103340.92;;;-6.03;83.04
76726;BME280;65651;53.154;17.916;2023-02-05T07:42:53;103337.70;;;-5.98;83.25
76726;BME280;65651;53.154;17.916;2023-02-05T07:45:21;103338.85;;;-5.91;83.05
76726;BME280;65651;53.154;17.916;2023-02-05T07:47:48;103338.08;;;-5.83;83.32
76726;BME280;65651;53.154;17.916;2023-02-05T07:50:19;103343.48;;;-5.74;83.05
76726;BME280;65651;53.154;17.916;2023-02-05T07:52:50;103339.79;;;-5.65;83.08
76726;BME280;65651;53.154;17.916;2023-02-05T07:55:17;103343.89;;;-5.59;83.25
76726;BME280;65651;53.154;17.916;2023-02-05T07:57:45;103344.83;;;-5.55;83.12
76726;BME280;65651;53.154;17.916;2023-02-05T08:00:13;103349.14;;;-5.48;82.88
76726;BME280;65651;53.154;17.916;2023-02-05T08:02:40;103355.60;;;-5.37;83.08
76726;BME280;65651;53.154;17.916;2023-02-05T08:05:08;103358.92;;;-5.25;83.00
76726;BME280;65651;53.154;17.916;2023-02-05T08:07:35;103358.02;;;-5.15;83.16
76726;BME280;65651;53.154;17.916;2023-02-05T08:10:04;103363.80;;;-5.03;83.05
76726;BME280;65651;53.154;17.916;2023-02-05T08:12:31;103363.43;;;-4.91;82.96
76726;BME280;65651;53.154;17.916;2023-02-05T08:14:59;103360.46;;;-4.77;82.94
76726;BME280;65651;53.154;17.916;2023-02-05T08:17:26;103359.25;;;-4.61;82.98
76726;BME280;65651;53.154;17.916;2023-02-05T08:19:54;103354.83;;;-4.50;82.65
76726;BME280;65651;53.154;17.916;2023-02-05T08:22:21;103357.44;;;-4.53;82.66
76726;BME280;65651;53.154;17.916;2023-02-05T08:24:51;103362.59;;;-4.45;82.58
76726;BME280;65651;53.154;17.916;2023-02-05T08:27:21;103365.81;;;-4.24;82.50
76726;BME280;65651;53.154;17.916;2023-02-05T08:29:49;103366.21;;;-4.01;82.38
76726;BME280;65651;53.154;17.916;2023-02-05T08:32:16;103366.52;;;-3.87;82.18
76726;BME280;65651;53.154;17.916;2023-02-05T08:34:46;103367.30;;;-3.79;82.02
76726;BME280;65651;53.154;17.916;2023-02-05T08:37:14;103363.34;;;-3.71;81.83
76726;BME280;65651;53.154;17.916;2023-02-05T08:39:41;103359.37;;;-3.60;81.80
76726;BME280;65651;53.154;17.916;2023-02-05T08:42:08;103358.42;;;-3.48;81.84
76726;BME280;65651;53.154;17.916;2023-02-05T08:44:35;103356.80;;;-3.30;81.65
76726;BME280;65651;53.154;17.916;2023-02-05T08:47:03;103358.82;;;-3.15;81.56
76726;BME280;65651;53.154;17.916;2023-02-05T08:49:30;103366.10;;;-2.99;81.55
76726;BME280;65651;53.154;17.916;2023-02-05T08:51:58;103360.94;;;-2.79;81.48
76726;BME280;65651;53.154;17.916;2023-02-05T08:54:26;103362.23;;;-2.65;81.46
76726;BME280;65651;53.154;17.916;2023-02-05T08:56:53;103361.38;;;-2.59;81.35
76726;BME280;65651;53.154;17.916;2023-02-05T08:59:21;103361.05;;;-2.55;81.32
76726;BME280;65651;53.154;17.916;2023-02-05T09:01:49;103354.91;;;-2.44;81.21
76726;BME280;65651;53.154;17.916;2023-02-05T09:04:19;103347.05;;;-2.29;81.06
76726;BME280;65651;53.154;17.916;2023-02-05T09:06:48;103345.67;;;-2.07;80.90
76726;BME280;65651;53.154;17.916;2023-02-05T09:09:16;103342.35;;;-1.86;81.09
76726;BME280;65651;53.154;17.916;2023-02-05T09:11:47;103342.89;;;-1.72;81.05
76726;BME280;65651;53.154;17.916;2023-02-05T09:14:14;103340.95;;;-1.73;80.96
76726;BME280;65651;53.154;17.916;2023-02-05T09:16:42;103340.77;;;-1.68;81.08
76726;BME280;65651;53.154;17.916;2023-02-05T09:19:09;103343.23;;;-1.71;80.78
76726;BME280;65651;53.154;17.916;2023-02-05T09:21:36;103352.74;;;-1.73;80.68
76726;BME280;65651;53.154;17.916;2023-02-05T09:24:04;103353.27;;;-1.68;80.66
76726;BME280;65651;53.154;17.916;2023-02-05T09:26:34;103353.80;;;-1.65;80.56
76726;BME280;65651;53.154;17.916;2023-02-05T09:29:03;103357.67;;;-1.54;80.50
76726;BME280;65651;53.154;17.916;2023-02-05T09:31:30;103356.95;;;-1.36;80.31
76726;BME280;65651;53.154;17.916;2023-02-05T09:34:01;103355.87;;;-1.21;79.99
76726;BME280;65651;53.154;17.916;2023-02-05T09:36:31;103351.62;;;-1.13;79.83
76726;BME280;65651;53.154;17.916;2023-02-05T09:38:59;103349.14;;;-1.11;79.60
76726;BME280;65651;53.154;17.916;2023-02-05T09:41:59;103344.55;;;-1.07;79.92
76726;BME280;65651;53.154;17.916;2023-02-05T09:45:01;103339.37;;;-0.86;79.86
76726;BME280;65651;53.154;17.916;2023-02-05T09:50:28;103328.13;;;-0.55;79.45
76726;BME280;65651;53.154;17.916;2023-02-05T09:53:05;103321.66;;;-0.33;79.42
76726;BME280;65651;53.154;17.916;2023-02-05T09:55:38;103314.21;;;-0.28;79.07
76726;BME280;65651;53.154;17.916;2023-02-05T09:58:16;103304.87;;;-0.31;79.14
76726;BME280;65651;53.154;17.916;2023-02-05T10:00:56;103298.93;;;-0.40;79.01
76726;BME280;65651;53.154;17.916;2023-02-05T10:03:43;103294.59;;;-0.51;78.95
76726;BME280;65651;53.154;17.916;2023-02-05T10:11:25;103288.02;;;-0.19;78.92
76726;BME280;65651;53.154;17.916;2023-02-05T10:17:01;103280.84;;;-0.02;78.17
76726;BME280;65651;53.154;17.916;2023-02-05T10:20:02;103282.27;;;0.17;78.30
76726;BME280;65651;53.154;17.916;2023-02-05T10:22:56;103280.73;;;0.47;78.27
76726;BME280;65651;53.154;17.916;2023-02-05T10:28:43;103277.80;;;0.74;77.52
76726;BME280;65651;53.154;17.916;2023-02-05T10:37:04;103288.67;;;0.96;76.90
76726;BME280;65651;53.154;17.916;2023-02-05T10:39:32;103292.30;;;0.90;76.63
76726;BME280;65651;53.154;17.916;2023-02-05T10:42:13;103292.70;;;0.85;76.23
76726;BME280;65651;53.154;17.916;2023-02-05T10:44:49;103292.39;;;0.82;76.33
76726;BME280;65651;53.154;17.916;2023-02-05T10:47:41;103293.23;;;0.85;76.39
76726;BME280;65651;53.154;17.916;2023-02-05T10:50:34;103291.98;;;1.00;76.32
76726;BME280;65651;53.154;17.916;2023-02-05T10:53:09;103279.46;;;1.11;76.38
76726;BME280;65651;53.154;17.916;2023-02-05T10:55:37;103281.51;;;1.18;76.53
76726;BME280;65651;53.154;17.916;2023-02-05T11:01:35;103282.60;;;1.30;76.17
76726;BME280;65651;53.154;17.916;2023-02-05T11:04:12;103282.94;;;1.31;75.98
76726;BME280;65651;53.154;17.916;2023-02-05T11:06:46;103277.52;;;1.25;75.55
76726;BME280;65651;53.154;17.916;2023-02-05T11:12:01;103275.77;;;1.23;74.94
76726;BME280;65651;53.154;17.916;2023-02-05T11:14:40;103270.55;;;1.17;75.08
76726;BME280;65651;53.154;17.916;2023-02-05T11:20:03;103268.05;;;1.05;74.85
76726;BME280;65651;53.154;17.916;2023-02-05T11:22:34;103269.64;;;0.92;74.90
76726;BME280;65651;53.154;17.916;2023-02-05T11:27:34;103265.48;;;0.68;74.82
76726;BME280;65651;53.154;17.916;2023-02-05T11:30:26;103262.71;;;0.64;74.54
76726;BME280;65651;53.154;17.916;2023-02-05T11:32:53;103262.50;;;0.66;74.42
76726;BME280;65651;53.154;17.916;2023-02-05T11:35:24;103261.73;;;0.72;74.35
76726;BME280;65651;53.154;17.916;2023-02-05T11:37:59;103257.83;;;0.75;74.20
76726;BME280;65651;53.154;17.916;2023-02-05T11:40:29;103251.98;;;0.75;74.27
76726;BME280;65651;53.154;17.916;2023-02-05T11:43:07;103251.98;;;0.75;73.87
76726;BME280;65651;53.154;17.916;2023-02-05T11:45:47;103249.09;;;0.81;74.19
76726;BME280;65651;53.154;17.916;2023-02-05T11:51:00;103239.59;;;0.91;74.16
76726;BME280;65651;53.154;17.916;2023-02-05T11:53:29;103239.46;;;1.01;74.00
76726;BME280;65651;53.154;17.916;2023-02-05T11:56:10;103235.09;;;1.10;74.00
76726;BME280;65651;53.154;17.916;2023-02-05T11:58:57;103230.70;;;1.20;73.61
76726;BME280;65651;53.154;17.916;2023-02-05T12:01:26;103229.96;;;1.24;73.33
76726;BME280;65651;53.154;17.916;2023-02-05T12:04:02;103223.20;;;1.25;73.36
76726;BME280;65651;53.154;17.916;2023-02-05T12:06:36;103223.73;;;1.38;73.47
76726;BME280;65651;53.154;17.916;2023-02-05T12:09:04;103220.73;;;1.49;73.32
76726;BME280;65651;53.154;17.916;2023-02-05T12:14:41;103226.58;;;1.49;73.21
76726;BME280;65651;53.154;17.916;2023-02-05T12:21:15;103221.65;;;1.46;73.10
76726;BME280;65651;53.154;17.916;2023-02-05T12:23:23;103220.11;;;1.44;72.58
76726;BME280;65651;53.154;17.916;2023-02-05T12:26:19;103219.92;;;1.31;72.50
76726;BME280;65651;53.154;17.916;2023-02-05T12:29:19;103220.80;;;1.20;72.26
76726;BME280;65651;53.154;17.916;2023-02-05T12:32:09;103226.50;;;1.18;72.53
76726;BME280;65651;53.154;17.916;2023-02-05T12:37:57;103213.80;;;1.15;72.12
76726;BME280;65651;53.154;17.916;2023-02-05T12:43:42;103205.25;;;1.07;71.39
76726;BME280;65651;53.154;17.916;2023-02-05T12:46:44;103201.52;;;0.95;71.45
76726;BME280;65651;53.154;17.916;2023-02-05T12:49:19;103203.18;;;0.90;71.86
76726;BME280;65651;53.154;17.916;2023-02-05T12:57:26;103213.64;;;0.88;71.80
76726;BME280;65651;53.154;17.916;2023-02-05T13:03:35;103211.45;;;0.94;71.95
76726;BME280;65651;53.154;17.916;2023-02-05T13:06:09;103207.84;;;0.98;71.92
76726;BME280;65651;53.154;17.916;2023-02-05T13:11:37;103206.83;;;0.95;72.02
76726;BME280;65651;53.154;17.916;2023-02-05T13:14:13;103207.84;;;0.98;71.76
76726;BME280;65651;53.154;17.916;2023-02-05T13:16:50;103206.09;;;0.96;72.10
76726;BME280;65651;53.154;17.916;2023-02-05T13:19:25;103211.56;;;0.97;71.80
76726;BME280;65651;53.154;17.916;2023-02-05T13:21:58;103214.56;;;0.97;71.88
76726;BME280;65651;53.154;17.916;2023-02-05T13:24:51;103220.67;;;1.03;71.91
76726;BME280;65651;53.154;17.916;2023-02-05T13:27:42;103221.02;;;1.04;71.86
76726;BME280;65651;53.154;17.916;2023-02-05T13:30:41;103219.96;;;1.03;71.85
76726;BME280;65651;53.154;17.916;2023-02-05T13:33:09;103220.75;;;0.99;71.70
76726;BME280;65651;53.154;17.916;2023-02-05T13:58:48;103234.77;;;0.64;72.07
76726;BME280;65651;53.154;17.916;2023-02-05T14:01:23;103231.02;;;0.53;71.94
76726;BME280;65651;53.154;17.916;2023-02-05T14:04:04;103235.30;;;0.49;71.93
76726;BME280;65651;53.154;17.916;2023-02-05T14:06:38;103236.40;;;0.46;72.21
76726;BME280;65651;53.154;17.916;2023-02-05T14:09:19;103235.38;;;0.42;72.12
76726;BME280;65651;53.154;17.916;2023-02-05T14:11:55;103237.55;;;0.38;72.16
76726;BME280;65651;53.154;17.916;2023-02-05T14:14:29;103239.86;;;0.36;72.19
76726;BME280;65651;53.154;17.916;2023-02-05T14:16:59;103245.02;;;0.33;72.35
76726;BME280;65651;53.154;17.916;2023-02-05T14:24:59;103267.98;;;0.15;72.24
76726;BME280;65651;53.154;17.916;2023-02-05T14:33:02;103262.98;;;0.02;72.19
76726;BME280;65651;53.154;17.916;2023-02-05T14:35:36;103263.51;;;0.02;72.43
76726;BME280;65651;53.154;17.916;2023-02-05T14:38:31;103259.09;;;0.03;72.31
76726;BME280;65651;53.154;17.916;2023-02-05T14:41:10;103255.04;;;0.00;72.40
76726;BME280;65651;53.154;17.916;2023-02-05T14:43:39;103262.67;;;-0.04;72.37
76726;BME280;65651;53.154;17.916;2023-02-05T14:46:36;103266.06;;;-0.09;72.44
76726;BME280;65651;53.154;17.916;2023-02-05T14:51:53;103272.39;;;-0.30;72.48
76726;BME280;65651;53.154;17.916;2023-02-05T14:54:30;103270.33;;;-0.38;72.57
76726;BME280;65651;53.154;17.916;2023-02-05T15:06:07;103250.30;;;-0.51;73.20
76726;BME280;65651;53.154;17.916;2023-02-05T15:11:25;103251.37;;;-0.52;73.33
76726;BME280;65651;53.154;17.916;2023-02-05T15:22:11;103249.84;;;-0.62;73.66
76726;BME280;65651;53.154;17.916;2023-02-05T15:24:47;103254.98;;;-0.65;73.79
76726;BME280;65651;53.154;17.916;2023-02-05T15:27:20;103260.65;;;-0.70;73.95
76726;BME280;65651;53.154;17.916;2023-02-05T15:29:51;103260.16;;;-0.75;73.96
76726;BME280;65651;53.154;17.916;2023-02-05T15:32:25;103257.55;;;-0.82;74.03